sensor_id;sensor_type;location;lat;lon;timestamp;temperature;humidity
5735;DHT22;2892;47.592;7.688;2024-03-08T00:02:10;3.80;99.90
5735;DHT22;2892;47.592;7.688;2024-03-08T00:04:35;3.80;99.90
5735;DHT22;2892;47.592;7.688;2024-03-08T00:07:00;3.70;99.90
5735;DHT22;2892;47.592;7.688;2024-03-08T00:09:26;3.80;99.90
5735;DHT22;2892;47.592;7.688;2024-03-08T00:11:51;3.80;99.90
5735;DHT22;2892;47.592;7.688;2024-03-08T00:14:17;3.80;99.90
5735;DHT22;2892;47.592;7.688;2024-03-08T00:16:42;3.80;99.90
5735;DHT22;2892;47.592;7.688;2024-03-08T00:19:08;3.80;99.90
5735;DHT22;2892;47.592;7.688;2024-03-08T00:21:33;3.70;99.90
5735;DHT22;2892;47.592;7.688;2024-03-08T00:23:59;3.70;99.90
5735;DHT22;2892;47.592;7.688;2024-03-08T00:26:24;3.80;99.90
5735;DHT22;2892;47.592;7.688;2024-03-08T00:28:50;3.90;99.90
5735;DHT22;2892;47.592;7.688;2024-03-08T00:31:15;3.90;99.90
5735;DHT22;2892;47.592;7.688;2024-03-08T00:33:41;3.70;99.90
5735;DHT22;2892;47.592;7.688;2024-03-08T00:36:06;3.80;99.90
5735;DHT22;2892;47.592;7.688;2024-03-08T00:38:32;3.70;99.90
5735;DHT22;2892;47.592;7.688;2024-03-08T00:40:57;3.60;99.90
5735;DHT22;2892;47.592;7.688;2024-03-08T00:43:23;3.70;99.90
5735;DHT22;2892;47.592;7.688;2024-03-08T00:45:48;3.50;99.90
5735;DHT22;2892;47.592;7.688;2024-03-08T00:48:14;3.60;99.90
5735;DHT22;2892;47.592;7.688;2024-03-08T00:50:39;3.60;99.90
5735;DHT22;2892;47.592;7.688;2024-03-08T00:53:05;3.60;99.90
5735;DHT22;2892;47.592;7.688;2024-03-08T00:55:30;3.70;99.90
5735;DHT22;2892;47.592;7.688;2024-03-08T00:57:56;3.60;99.90
5735;DHT22;2892;47.592;7.688;2024-03-08T01:00:21;3.60;99.90
5735;DHT22;2892;47.592;7.688;2024-03-08T01:02:47;3.90;99.90
5735;DHT22;2892;47.592;7.688;2024-03-08T01:05:13;3.80;99.90
5735;DHT22;2892;47.592;7.688;2024-03-08T01:07:38;3.70;99.90
5735;DHT22;2892;47.592;7.688;2024-03-08T01:10:05;3.70;99.90
5735;DHT22;2892;47.592;7.688;2024-03-08T01:12:30;3.50;99.90
5735;DHT22;2892;47.592;7.688;2024-03-08T01:14:56;3.60;99.90
5735;DHT22;2892;47.592;7.688;2024-03-08T01:17:21;3.50;99.90
5735;DHT22;2892;47.592;7.688;2024-03-08T01:19:47;3.50;99.90
5735;DHT22;2892;47.592;7.688;2024-03-08T01:22:12;3.50;99.90
5735;DHT22;2892;47.592;7.688;2024-03-08T01:24:38;3.40;99.90
5735;DHT22;2892;47.592;7.688;2024-03-08T01:27:03;3.30;99.90
5735;DHT22;2892;47.592;7.688;2024-03-08T01:29:29;3.20;99.90
5735;DHT22;2892;47.592;7.688;2024-03-08T01:31:55;3.20;99.90
5735;DHT22;2892;47.592;7.688;2024-03-08T01:34:21;3.30;99.90
5735;DHT22;2892;47.592;7.688;2024-03-08T01:36:46;3.30;99.90
5735;DHT22;2892;47.592;7.688;2024-03-08T01:39:11;3.30;99.90
5735;DHT22;2892;47.592;7.688;2024-03-08T01:41:37;3.30;99.90
5735;DHT22;2892;47.592;7.688;2024-03-08T01:44:03;3.20;99.90
5735;DHT22;2892;47.592;7.688;2024-03-08T01:46:29;3.20;99.90
5735;DHT22;2892;47.592;7.688;2024-03-08T01:48:54;3.20;99.90
5735;DHT22;2892;47.592;7.688;2024-03-08T01:51:20;3.20;99.90
5735;DHT22;2892;47.592;7.688;2024-03-08T01:53:48;3.30;99.90
5735;DHT22;2892;47.592;7.688;2024-03-08T01:56:14;3.30;99.90
5735;DHT22;2892;47.592;7.688;2024-03-08T01:58:41;3.30;99.90
5735;DHT22;2892;47.592;7.688;2024-03-08T02:01:07;3.20;99.90
5735;DHT22;2892;47.592;7.688;2024-03-08T02:03:33;3.10;99.90
5735;DHT22;2892;47.592;7.688;2024-03-08T02:05:58;3.20;99.90
5735;DHT22;2892;47.592;7.688;2024-03-08T02:08:24;3.10;99.90
5735;DHT22;2892;47.592;7.688;2024-03-08T02:10:49;3.10;99.90
5735;DHT22;2892;47.592;7.688;2024-03-08T02:13:15;3.10;99.90
5735;DHT22;2892;47.592;7.688;2024-03-08T02:15:58;3.10;99.90
5735;DHT22;2892;47.592;7.688;2024-03-08T02:18:23;3.00;99.90
5735;DHT22;2892;47.592;7.688;2024-03-08T02:20:53;3.10;99.90
5735;DHT22;2892;47.592;7.688;2024-03-08T02:23:20;3.20;99.90
5735;DHT22;2892;47.592;7.688;2024-03-08T02:25:46;3.10;99.90
5735;DHT22;2892;47.592;7.688;2024-03-08T02:28:12;3.10;99.90
5735;DHT22;2892;47.592;7.688;2024-03-08T02:30:38;3.10;99.90
5735;DHT22;2892;47.592;7.688;2024-03-08T02:33:05;3.20;99.90
5735;DHT22;2892;47.592;7.688;2024-03-08T02:35:30;3.20;99.90
5735;DHT22;2892;47.592;7.688;2024-03-08T02:37:56;3.10;99.90
5735;DHT22;2892;47.592;7.688;2024-03-08T02:40:21;2.90;99.90
5735;DHT22;2892;47.592;7.688;2024-03-08T02:42:47;2.90;99.90
5735;DHT22;2892;47.592;7.688;2024-03-08T02:45:13;3.00;99.90
5735;DHT22;2892;47.592;7.688;2024-03-08T02:47:38;3.00;99.90
5735;DHT22;2892;47.592;7.688;2024-03-08T02:50:05;2.90;99.90
5735;DHT22;2892;47.592;7.688;2024-03-08T02:52:30;2.90;99.90
5735;DHT22;2892;47.592;7.688;2024-03-08T02:54:56;2.90;99.90
5735;DHT22;2892;47.592;7.688;2024-03-08T02:57:21;3.00;99.90
5735;DHT22;2892;47.592;7.688;2024-03-08T02:59:47;3.10;99.90
5735;DHT22;2892;47.592;7.688;2024-03-08T03:02:12;3.10;99.90
5735;DHT22;2892;47.592;7.688;2024-03-08T03:04:40;3.10;99.90
5735;DHT22;2892;47.592;7.688;2024-03-08T03:07:06;3.00;99.90
5735;DHT22;2892;47.592;7.688;2024-03-08T03:09:31;3.00;99.90
5735;DHT22;2892;47.592;7.688;2024-03-08T03:11:57;3.00;99.90
5735;DHT22;2892;47.592;7.688;2024-03-08T03:14:22;2.90;99.90
5735;DHT22;2892;47.592;7.688;2024-03-08T03:16:48;2.80;99.90
5735;DHT22;2892;47.592;7.688;2024-03-08T03:19:13;2.80;99.90
5735;DHT22;2892;47.592;7.688;2024-03-08T03:21:39;2.80;99.90
5735;DHT22;2892;47.592;7.688;2024-03-08T03:24:05;3.00;99.90
5735;DHT22;2892;47.592;7.688;2024-03-08T03:26:30;3.00;99.90
5735;DHT22;2892;47.592;7.688;2024-03-08T03:28:56;3.10;99.90
5735;DHT22;2892;47.592;7.688;2024-03-08T03:31:21;3.00;99.90
5735;DHT22;2892;47.592;7.688;2024-03-08T03:33:47;3.00;99.90
5735;DHT22;2892;47.592;7.688;2024-03-08T03:36:12;3.00;99.90
5735;DHT22;2892;47.592;7.688;2024-03-08T03:38:37;3.10;99.90
5735;DHT22;2892;47.592;7.688;2024-03-08T03:41:03;3.20;99.90
5735;DHT22;2892;47.592;7.688;2024-03-08T03:43:29;3.20;99.90
5735;DHT22;2892;47.592;7.688;2024-03-08T03:45:54;3.20;99.90
5735;DHT22;2892;47.592;7.688;2024-03-08T03:48:19;3.30;99.90
5735;DHT22;2892;47.592;7.688;2024-03-08T03:50:45;3.50;99.90
5735;DHT22;2892;47.592;7.688;2024-03-08T03:53:10;3.70;99.90
5735;DHT22;2892;47.592;7.688;2024-03-08T03:55:36;3.60;99.90
5735;DHT22;2892;47.592;7.688;2024-03-08T03:58:02;3.70;99.90
5735;DHT22;2892;47.592;7.688;2024-03-08T04:00:27;3.70;99.90
5735;DHT22;2892;47.592;7.688;2024-03-08T04:02:53;3.80;99.90
5735;DHT22;2892;47.592;7.688;2024-03-08T04:05:18;3.60;99.90
5735;DHT22;2892;47.592;7.688;2024-03-08T04:07:44;3.40;99.90
5735;DHT22;2892;47.592;7.688;2024-03-08T04:10:10;3.50;99.90
5735;DHT22;2892;47.592;7.688;2024-03-08T04:12:36;3.50;99.90
5735;DHT22;2892;47.592;7.688;2024-03-08T04:15:02;3.60;99.90
5735;DHT22;2892;47.592;7.688;2024-03-08T04:17:28;3.60;99.90
5735;DHT22;2892;47.592;7.688;2024-03-08T04:19:53;3.60;99.90
5735;DHT22;2892;47.592;7.688;2024-03-08T04:22:19;3.60;99.90
5735;DHT22;2892;47.592;7.688;2024-03-08T04:24:45;3.60;99.90
5735;DHT22;2892;47.592;7.688;2024-03-08T04:27:11;3.50;99.90
5735;DHT22;2892;47.592;7.688;2024-03-08T04:29:36;3.50;99.90
5735;DHT22;2892;47.592;7.688;2024-03-08T04:32:04;3.50;99.90
5735;DHT22;2892;47.592;7.688;2024-03-08T04:34:30;3.50;99.90
5735;DHT22;2892;47.592;7.688;2024-03-08T04:36:57;3.50;99.90
5735;DHT22;2892;47.592;7.688;2024-03-08T04:39:23;3.60;99.90
5735;DHT22;2892;47.592;7.688;2024-03-08T04:41:49;3.70;99.90
5735;DHT22;2892;47.592;7.688;2024-03-08T04:44:16;3.70;99.90
5735;DHT22;2892;47.592;7.688;2024-03-08T04:46:41;3.80;99.90
5735;DHT22;2892;47.592;7.688;2024-03-08T04:49:07;3.80;99.90
5735;DHT22;2892;47.592;7.688;2024-03-08T04:51:33;3.90;99.90
5735;DHT22;2892;47.592;7.688;2024-03-08T04:53:58;3.80;99.90
5735;DHT22;2892;47.592;7.688;2024-03-08T04:56:24;3.90;99.90
5735;DHT22;2892;47.592;7.688;2024-03-08T04:58:49;3.90;99.90
5735;DHT22;2892;47.592;7.688;2024-03-08T05:01:15;3.90;99.90
5735;DHT22;2892;47.592;7.688;2024-03-08T05:03:40;3.90;99.90
5735;DHT22;2892;47.592;7.688;2024-03-08T05:06:06;3.90;99.90
5735;DHT22;2892;47.592;7.688;2024-03-08T05:08:31;4.00;99.90
5735;DHT22;2892;47.592;7.688;2024-03-08T05:10:57;4.00;99.90
5735;DHT22;2892;47.592;7.688;2024-03-08T05:13:22;4.00;99.90
5735;DHT22;2892;47.592;7.688;2024-03-08T05:15:49;4.00;99.90
5735;DHT22;2892;47.592;7.688;2024-03-08T05:18:14;4.00;99.90
5735;DHT22;2892;47.592;7.688;2024-03-08T05:20:40;4.00;99.90
5735;DHT22;2892;47.592;7.688;2024-03-08T05:23:05;3.90;99.90
5735;DHT22;2892;47.592;7.688;2024-03-08T05:25:31;4.00;99.90
5735;DHT22;2892;47.592;7.688;2024-03-08T05:27:56;4.00;99.90
5735;DHT22;2892;47.592;7.688;2024-03-08T05:30:22;4.00;99.90
5735;DHT22;2892;47.592;7.688;2024-03-08T05:32:47;4.00;99.90
5735;DHT22;2892;47.592;7.688;2024-03-08T05:35:13;4.00;99.90
5735;DHT22;2892;47.592;7.688;2024-03-08T05:37:38;4.10;99.90
5735;DHT22;2892;47.592;7.688;2024-03-08T05:40:05;4.10;99.90
5735;DHT22;2892;47.592;7.688;2024-03-08T05:42:31;4.10;99.90
5735;DHT22;2892;47.592;7.688;2024-03-08T05:44:56;4.10;99.90
5735;DHT22;2892;47.592;7.688;2024-03-08T05:47:21;4.10;99.90
5735;DHT22;2892;47.592;7.688;2024-03-08T05:49:47;4.10;99.90
5735;DHT22;2892;47.592;7.688;2024-03-08T05:52:12;4.00;99.90
5735;DHT22;2892;47.592;7.688;2024-03-08T05:54:38;4.10;99.90
5735;DHT22;2892;47.592;7.688;2024-03-08T05:57:04;4.10;99.90
5735;DHT22;2892;47.592;7.688;2024-03-08T05:59:29;4.00;99.90
5735;DHT22;2892;47.592;7.688;2024-03-08T06:01:55;4.00;99.90
5735;DHT22;2892;47.592;7.688;2024-03-08T06:04:20;4.00;99.90
5735;DHT22;2892;47.592;7.688;2024-03-08T06:06:45;3.90;99.90
5735;DHT22;2892;47.592;7.688;2024-03-08T06:09:11;3.90;99.90
5735;DHT22;2892;47.592;7.688;2024-03-08T06:11:36;3.90;99.90
5735;DHT22;2892;47.592;7.688;2024-03-08T06:14:02;3.90;99.90
5735;DHT22;2892;47.592;7.688;2024-03-08T06:16:27;3.80;99.90
5735;DHT22;2892;47.592;7.688;2024-03-08T06:18:53;3.90;99.90
5735;DHT22;2892;47.592;7.688;2024-03-08T06:21:18;3.90;99.90
5735;DHT22;2892;47.592;7.688;2024-03-08T06:23:44;3.90;99.90
5735;DHT22;2892;47.592;7.688;2024-03-08T06:26:09;3.90;99.90
5735;DHT22;2892;47.592;7.688;2024-03-08T06:28:35;3.80;99.90
5735;DHT22;2892;47.592;7.688;2024-03-08T06:31:01;3.80;99.90
5735;DHT22;2892;47.592;7.688;2024-03-08T06:33:27;3.70;99.90
5735;DHT22;2892;47.592;7.688;2024-03-08T06:35:53;3.60;99.90
5735;DHT22;2892;47.592;7.688;2024-03-08T06:38:19;3.50;99.90
5735;DHT22;2892;47.592;7.688;2024-03-08T06:40:45;3.40;99.90
5735;DHT22;2892;47.592;7.688;2024-03-08T06:43:10;3.50;99.90
5735;DHT22;2892;47.592;7.688;2024-03-08T06:45:36;3.40;99.90
5735;DHT22;2892;47.592;7.688;2024-03-08T06:48:01;3.40;99.90
5735;DHT22;2892;47.592;7.688;2024-03-08T06:50:27;3.40;99.90
5735;DHT22;2892;47.592;7.688;2024-03-08T06:52:52;3.40;99.90
5735;DHT22;2892;47.592;7.688;2024-03-08T06:55:18;3.40;99.90
5735;DHT22;2892;47.592;7.688;2024-03-08T06:57:43;3.40;99.90
5735;DHT22;2892;47.592;7.688;2024-03-08T07:00:09;3.50;99.90
5735;DHT22;2892;47.592;7.688;2024-03-08T07:02:35;3.50;99.90
5735;DHT22;2892;47.592;7.688;2024-03-08T07:05:01;3.50;99.90
5735;DHT22;2892;47.592;7.688;2024-03-08T07:07:27;3.50;99.90
5735;DHT22;2892;47.592;7.688;2024-03-08T07:09:52;3.50;99.90
5735;DHT22;2892;47.592;7.688;2024-03-08T07:12:18;3.50;99.90
5735;DHT22;2892;47.592;7.688;2024-03-08T07:14:43;3.60;99.90
5735;DHT22;2892;47.592;7.688;2024-03-08T07:17:09;3.60;99.90
5735;DHT22;2892;47.592;7.688;2024-03-08T07:19:35;3.60;99.90
5735;DHT22;2892;47.592;7.688;2024-03-08T07:22:00;3.70;99.90
5735;DHT22;2892;47.592;7.688;2024-03-08T07:24:26;3.80;99.90
5735;DHT22;2892;47.592;7.688;2024-03-08T07:26:51;3.80;99.90
5735;DHT22;2892;47.592;7.688;2024-03-08T07:29:17;3.90;99.90
5735;DHT22;2892;47.592;7.688;2024-03-08T07:31:42;3.90;99.90
5735;DHT22;2892;47.592;7.688;2024-03-08T07:34:08;3.90;99.90
5735;DHT22;2892;47.592;7.688;2024-03-08T07:36:34;4.00;99.90
5735;DHT22;2892;47.592;7.688;2024-03-08T07:38:59;4.00;99.90
5735;DHT22;2892;47.592;7.688;2024-03-08T07:41:25;4.00;99.90
5735;DHT22;2892;47.592;7.688;2024-03-08T07:43:50;4.00;99.90
5735;DHT22;2892;47.592;7.688;2024-03-08T07:46:16;4.00;99.90
5735;DHT22;2892;47.592;7.688;2024-03-08T07:48:41;4.10;99.90
5735;DHT22;2892;47.592;7.688;2024-03-08T07:51:07;4.20;99.90
5735;DHT22;2892;47.592;7.688;2024-03-08T07:53:32;4.30;99.90
5735;DHT22;2892;47.592;7.688;2024-03-08T07:55:58;4.30;99.90
5735;DHT22;2892;47.592;7.688;2024-03-08T07:58:23;4.40;99.90
5735;DHT22;2892;47.592;7.688;2024-03-08T08:00:49;4.50;99.90
5735;DHT22;2892;47.592;7.688;2024-03-08T08:03:14;4.60;99.90
5735;DHT22;2892;47.592;7.688;2024-03-08T08:05:40;4.60;99.90
5735;DHT22;2892;47.592;7.688;2024-03-08T08:08:07;4.60;99.90
5735;DHT22;2892;47.592;7.688;2024-03-08T08:10:33;4.70;99.90
5735;DHT22;2892;47.592;7.688;2024-03-08T08:12:59;4.70;99.90
5735;DHT22;2892;47.592;7.688;2024-03-08T08:15:24;4.70;99.90
5735;DHT22;2892;47.592;7.688;2024-03-08T08:17:49;4.80;99.90
5735;DHT22;2892;47.592;7.688;2024-03-08T08:20:15;4.80;99.90
5735;DHT22;2892;47.592;7.688;2024-03-08T08:22:41;4.80;99.90
5735;DHT22;2892;47.592;7.688;2024-03-08T08:25:07;5.10;99.90
5735;DHT22;2892;47.592;7.688;2024-03-08T08:27:33;5.00;99.90
5735;DHT22;2892;47.592;7.688;2024-03-08T08:29:58;5.10;99.90
5735;DHT22;2892;47.592;7.688;2024-03-08T08:32:24;5.20;99.90
5735;DHT22;2892;47.592;7.688;2024-03-08T08:34:49;5.20;99.90
5735;DHT22;2892;47.592;7.688;2024-03-08T08:37:15;5.20;99.90
5735;DHT22;2892;47.592;7.688;2024-03-08T08:39:40;5.30;99.90
5735;DHT22;2892;47.592;7.688;2024-03-08T08:42:06;5.30;99.90
5735;DHT22;2892;47.592;7.688;2024-03-08T08:44:31;5.20;99.90
5735;DHT22;2892;47.592;7.688;2024-03-08T08:46:57;5.10;99.90
5735;DHT22;2892;47.592;7.688;2024-03-08T08:49:23;5.10;99.90
5735;DHT22;2892;47.592;7.688;2024-03-08T08:51:49;5.20;99.90
5735;DHT22;2892;47.592;7.688;2024-03-08T08:54:15;5.70;99.90
5735;DHT22;2892;47.592;7.688;2024-03-08T08:56:40;6.40;99.90
5735;DHT22;2892;47.592;7.688;2024-03-08T08:59:06;7.20;99.90
5735;DHT22;2892;47.592;7.688;2024-03-08T09:01:31;7.60;99.90
5735;DHT22;2892;47.592;7.688;2024-03-08T09:03:57;7.70;99.90
5735;DHT22;2892;47.592;7.688;2024-03-08T09:06:22;7.70;99.90
5735;DHT22;2892;47.592;7.688;2024-03-08T09:08:48;7.70;99.90
5735;DHT22;2892;47.592;7.688;2024-03-08T09:11:13;8.00;99.90
5735;DHT22;2892;47.592;7.688;2024-03-08T09:13:39;8.30;99.90
5735;DHT22;2892;47.592;7.688;2024-03-08T09:16:04;8.50;99.90
5735;DHT22;2892;47.592;7.688;2024-03-08T09:18:30;8.60;99.90
5735;DHT22;2892;47.592;7.688;2024-03-08T09:20:56;8.90;99.90
5735;DHT22;2892;47.592;7.688;2024-03-08T09:23:21;8.90;99.90
5735;DHT22;2892;47.592;7.688;2024-03-08T09:25:47;9.00;99.90
5735;DHT22;2892;47.592;7.688;2024-03-08T09:28:12;9.50;99.90
5735;DHT22;2892;47.592;7.688;2024-03-08T09:30:38;9.30;99.90
5735;DHT22;2892;47.592;7.688;2024-03-08T09:33:05;9.20;99.90
5735;DHT22;2892;47.592;7.688;2024-03-08T09:35:30;9.50;99.90
5735;DHT22;2892;47.592;7.688;2024-03-08T09:37:56;10.10;99.90
5735;DHT22;2892;47.592;7.688;2024-03-08T09:40:21;9.90;99.90
5735;DHT22;2892;47.592;7.688;2024-03-08T09:42:48;9.80;99.90
5735;DHT22;2892;47.592;7.688;2024-03-08T09:45:14;9.70;99.90
5735;DHT22;2892;47.592;7.688;2024-03-08T09:47:39;9.70;99.90
5735;DHT22;2892;47.592;7.688;2024-03-08T09:50:08;9.40;99.90
5735;DHT22;2892;47.592;7.688;2024-03-08T09:52:33;9.90;99.90
5735;DHT22;2892;47.592;7.688;2024-03-08T09:54:59;9.80;99.90
5735;DHT22;2892;47.592;7.688;2024-03-08T09:57:25;9.70;99.90
5735;DHT22;2892;47.592;7.688;2024-03-08T09:59:51;9.50;99.90
5735;DHT22;2892;47.592;7.688;2024-03-08T10:02:16;9.20;99.90
5735;DHT22;2892;47.592;7.688;2024-03-08T10:04:42;9.60;99.90
5735;DHT22;2892;47.592;7.688;2024-03-08T10:07:08;9.90;99.90
5735;DHT22;2892;47.592;7.688;2024-03-08T10:09:34;9.80;99.90
5735;DHT22;2892;47.592;7.688;2024-03-08T10:11:59;9.90;99.90
5735;DHT22;2892;47.592;7.688;2024-03-08T10:14:25;10.50;99.90
5735;DHT22;2892;47.592;7.688;2024-03-08T10:16:52;10.70;99.90
5735;DHT22;2892;47.592;7.688;2024-03-08T10:19:17;10.70;99.90
5735;DHT22;2892;47.592;7.688;2024-03-08T10:21:51;10.20;99.90
5735;DHT22;2892;47.592;7.688;2024-03-08T10:24:17;10.50;99.90
5735;DHT22;2892;47.592;7.688;2024-03-08T10:26:42;10.60;99.90
5735;DHT22;2892;47.592;7.688;2024-03-08T10:29:08;10.50;99.90
5735;DHT22;2892;47.592;7.688;2024-03-08T10:31:34;10.80;99.90
5735;DHT22;2892;47.592;7.688;2024-03-08T10:33:59;10.50;99.90
5735;DHT22;2892;47.592;7.688;2024-03-08T10:36:25;10.80;99.90
5735;DHT22;2892;47.592;7.688;2024-03-08T10:38:52;10.10;99.90
5735;DHT22;2892;47.592;7.688;2024-03-08T10:41:17;10.90;99.90
5735;DHT22;2892;47.592;7.688;2024-03-08T10:47:15;11.10;99.90
5735;DHT22;2892;47.592;7.688;2024-03-08T10:49:54;11.20;99.90
5735;DHT22;2892;47.592;7.688;2024-03-08T10:52:21;11.10;99.90
5735;DHT22;2892;47.592;7.688;2024-03-08T10:54:47;11.10;99.90
5735;DHT22;2892;47.592;7.688;2024-03-08T10:57:14;11.80;99.90
5735;DHT22;2892;47.592;7.688;2024-03-08T10:59:41;11.20;99.90
5735;DHT22;2892;47.592;7.688;2024-03-08T11:02:08;11.60;99.90
5735;DHT22;2892;47.592;7.688;2024-03-08T11:04:37;11.60;99.90
5735;DHT22;2892;47.592;7.688;2024-03-08T11:07:02;11.20;99.90
5735;DHT22;2892;47.592;7.688;2024-03-08T11:14:48;12.20;99.90
5735;DHT22;2892;47.592;7.688;2024-03-08T11:17:14;11.90;99.90
5735;DHT22;2892;47.592;7.688;2024-03-08T11:19:46;11.20;99.90
5735;DHT22;2892;47.592;7.688;2024-03-08T11:22:22;11.70;99.90
5735;DHT22;2892;47.592;7.688;2024-03-08T11:24:48;11.90;99.90
5735;DHT22;2892;47.592;7.688;2024-03-08T11:27:13;11.90;99.90
5735;DHT22;2892;47.592;7.688;2024-03-08T11:29:40;12.00;99.90
5735;DHT22;2892;47.592;7.688;2024-03-08T11:34:34;12.20;99.90
5735;DHT22;2892;47.592;7.688;2024-03-08T11:37:00;11.80;99.90
5735;DHT22;2892;47.592;7.688;2024-03-08T11:39:26;11.60;99.90
5735;DHT22;2892;47.592;7.688;2024-03-08T11:41:51;11.70;99.90
5735;DHT22;2892;47.592;7.688;2024-03-08T11:44:17;12.00;99.90
5735;DHT22;2892;47.592;7.688;2024-03-08T11:46:43;12.20;99.90
5735;DHT22;2892;47.592;7.688;2024-03-08T11:49:08;12.00;99.90
5735;DHT22;2892;47.592;7.688;2024-03-08T11:51:34;11.70;99.90
5735;DHT22;2892;47.592;7.688;2024-03-08T11:53:59;11.80;99.90
5735;DHT22;2892;47.592;7.688;2024-03-08T11:56:25;12.10;99.90
5735;DHT22;2892;47.592;7.688;2024-03-08T11:58:55;11.80;99.90
5735;DHT22;2892;47.592;7.688;2024-03-08T12:01:21;12.50;99.90
5735;DHT22;2892;47.592;7.688;2024-03-08T12:03:53;12.50;99.90
5735;DHT22;2892;47.592;7.688;2024-03-08T12:06:19;12.80;99.90
5735;DHT22;2892;47.592;7.688;2024-03-08T12:08:46;12.20;99.90
5735;DHT22;2892;47.592;7.688;2024-03-08T12:11:12;12.50;99.90
5735;DHT22;2892;47.592;7.688;2024-03-08T12:13:37;12.50;99.90
5735;DHT22;2892;47.592;7.688;2024-03-08T12:16:03;12.20;99.90
5735;DHT22;2892;47.592;7.688;2024-03-08T12:18:32;12.60;99.90
5735;DHT22;2892;47.592;7.688;2024-03-08T12:21:14;12.80;99.90
5735;DHT22;2892;47.592;7.688;2024-03-08T12:23:39;12.70;99.90
5735;DHT22;2892;47.592;7.688;2024-03-08T12:26:13;12.40;99.90
5735;DHT22;2892;47.592;7.688;2024-03-08T12:28:40;12.40;99.90
5735;DHT22;2892;47.592;7.688;2024-03-08T12:31:07;12.50;99.90
5735;DHT22;2892;47.592;7.688;2024-03-08T12:33:33;12.40;99.90
5735;DHT22;2892;47.592;7.688;2024-03-08T12:35:59;12.50;99.90
5735;DHT22;2892;47.592;7.688;2024-03-08T12:38:27;12.50;99.90
5735;DHT22;2892;47.592;7.688;2024-03-08T12:41:01;12.70;99.90
5735;DHT22;2892;47.592;7.688;2024-03-08T12:43:26;12.20;99.90
5735;DHT22;2892;47.592;7.688;2024-03-08T12:45:52;12.40;99.90
5735;DHT22;2892;47.592;7.688;2024-03-08T12:48:17;12.60;99.90
5735;DHT22;2892;47.592;7.688;2024-03-08T12:50:43;12.80;99.90
5735;DHT22;2892;47.592;7.688;2024-03-08T12:53:08;12.30;99.90
5735;DHT22;2892;47.592;7.688;2024-03-08T12:55:34;12.30;99.90
5735;DHT22;2892;47.592;7.688;2024-03-08T12:57:59;12.20;99.90
5735;DHT22;2892;47.592;7.688;2024-03-08T13:00:25;12.20;99.90
5735;DHT22;2892;47.592;7.688;2024-03-08T13:02:50;12.30;99.90
5735;DHT22;2892;47.592;7.688;2024-03-08T13:05:16;12.00;99.90
5735;DHT22;2892;47.592;7.688;2024-03-08T13:07:42;11.50;99.90
5735;DHT22;2892;47.592;7.688;2024-03-08T13:10:08;11.60;99.90
5735;DHT22;2892;47.592;7.688;2024-03-08T13:12:33;11.90;99.90
5735;DHT22;2892;47.592;7.688;2024-03-08T13:14:59;11.60;99.90
5735;DHT22;2892;47.592;7.688;2024-03-08T13:17:24;11.80;99.90
5735;DHT22;2892;47.592;7.688;2024-03-08T13:19:50;11.70;99.90
5735;DHT22;2892;47.592;7.688;2024-03-08T13:22:15;11.60;99.90
5735;DHT22;2892;47.592;7.688;2024-03-08T13:24:41;11.90;99.90
5735;DHT22;2892;47.592;7.688;2024-03-08T13:27:07;11.70;99.90
5735;DHT22;2892;47.592;7.688;2024-03-08T13:29:33;11.70;99.90
5735;DHT22;2892;47.592;7.688;2024-03-08T13:31:58;11.60;99.90
5735;DHT22;2892;47.592;7.688;2024-03-08T13:34:24;11.50;99.90
5735;DHT22;2892;47.592;7.688;2024-03-08T13:36:49;11.50;99.90
5735;DHT22;2892;47.592;7.688;2024-03-08T13:39:15;11.60;99.90
5735;DHT22;2892;47.592;7.688;2024-03-08T13:41:41;11.70;99.90
5735;DHT22;2892;47.592;7.688;2024-03-08T13:44:07;11.60;99.90
5735;DHT22;2892;47.592;7.688;2024-03-08T13:46:32;11.30;99.90
5735;DHT22;2892;47.592;7.688;2024-03-08T13:49:04;11.30;99.90
5735;DHT22;2892;47.592;7.688;2024-03-08T13:51:29;11.50;99.90
5735;DHT22;2892;47.592;7.688;2024-03-08T13:53:55;11.40;99.90
5735;DHT22;2892;47.592;7.688;2024-03-08T13:56:20;11.50;99.90
5735;DHT22;2892;47.592;7.688;2024-03-08T13:58:46;11.40;99.90
5735;DHT22;2892;47.592;7.688;2024-03-08T14:01:11;11.50;99.90
5735;DHT22;2892;47.592;7.688;2024-03-08T14:03:37;11.60;99.90
5735;DHT22;2892;47.592;7.688;2024-03-08T14:06:02;11.70;99.90
5735;DHT22;2892;47.592;7.688;2024-03-08T14:08:28;11.30;99.90
5735;DHT22;2892;47.592;7.688;2024-03-08T14:10:53;11.30;99.90
5735;DHT22;2892;47.592;7.688;2024-03-08T14:13:19;11.10;99.90
5735;DHT22;2892;47.592;7.688;2024-03-08T14:15:44;11.20;99.90
5735;DHT22;2892;47.592;7.688;2024-03-08T14:18:10;11.40;99.90
5735;DHT22;2892;47.592;7.688;2024-03-08T14:20:35;11.10;99.90
5735;DHT22;2892;47.592;7.688;2024-03-08T14:23:01;11.30;99.90
5735;DHT22;2892;47.592;7.688;2024-03-08T14:25:26;11.40;99.90
5735;DHT22;2892;47.592;7.688;2024-03-08T14:27:53;11.80;99.90
5735;DHT22;2892;47.592;7.688;2024-03-08T14:30:19;11.60;99.90
5735;DHT22;2892;47.592;7.688;2024-03-08T14:32:44;11.50;99.90
5735;DHT22;2892;47.592;7.688;2024-03-08T14:35:10;11.30;99.90
5735;DHT22;2892;47.592;7.688;2024-03-08T14:37:35;11.20;99.90
5735;DHT22;2892;47.592;7.688;2024-03-08T14:40:01;11.10;99.90
5735;DHT22;2892;47.592;7.688;2024-03-08T14:42:26;11.20;99.90
5735;DHT22;2892;47.592;7.688;2024-03-08T14:44:52;11.30;99.90
5735;DHT22;2892;47.592;7.688;2024-03-08T14:47:17;11.50;99.90
5735;DHT22;2892;47.592;7.688;2024-03-08T14:49:43;11.20;99.90
5735;DHT22;2892;47.592;7.688;2024-03-08T14:52:08;11.30;99.90
5735;DHT22;2892;47.592;7.688;2024-03-08T14:54:34;11.50;99.90
5735;DHT22;2892;47.592;7.688;2024-03-08T14:56:59;11.50;99.90
5735;DHT22;2892;47.592;7.688;2024-03-08T14:59:25;11.30;99.90
5735;DHT22;2892;47.592;7.688;2024-03-08T15:01:50;11.30;99.90
5735;DHT22;2892;47.592;7.688;2024-03-08T15:04:16;10.90;99.90
5735;DHT22;2892;47.592;7.688;2024-03-08T15:06:41;11.00;99.90
5735;DHT22;2892;47.592;7.688;2024-03-08T15:09:07;10.90;99.90
5735;DHT22;2892;47.592;7.688;2024-03-08T15:11:32;10.60;99.90
5735;DHT22;2892;47.592;7.688;2024-03-08T15:13:58;10.50;99.90
5735;DHT22;2892;47.592;7.688;2024-03-08T15:16:23;10.40;99.90
5735;DHT22;2892;47.592;7.688;2024-03-08T15:18:49;10.10;99.90
5735;DHT22;2892;47.592;7.688;2024-03-08T15:21:14;10.20;99.90
5735;DHT22;2892;47.592;7.688;2024-03-08T15:23:40;10.30;99.90
5735;DHT22;2892;47.592;7.688;2024-03-08T15:26:06;10.00;99.90
5735;DHT22;2892;47.592;7.688;2024-03-08T15:28:31;10.00;99.90
5735;DHT22;2892;47.592;7.688;2024-03-08T15:30:56;9.90;99.90
5735;DHT22;2892;47.592;7.688;2024-03-08T15:33:22;10.10;99.90
5735;DHT22;2892;47.592;7.688;2024-03-08T15:35:47;10.20;99.90
5735;DHT22;2892;47.592;7.688;2024-03-08T15:38:13;10.30;99.90
5735;DHT22;2892;47.592;7.688;2024-03-08T15:40:39;10.30;99.90
5735;DHT22;2892;47.592;7.688;2024-03-08T15:43:04;10.00;99.90
5735;DHT22;2892;47.592;7.688;2024-03-08T15:45:29;9.90;99.90
5735;DHT22;2892;47.592;7.688;2024-03-08T15:47:55;10.00;99.90
5735;DHT22;2892;47.592;7.688;2024-03-08T15:50:21;10.10;99.90
5735;DHT22;2892;47.592;7.688;2024-03-08T15:52:46;10.10;99.90
5735;DHT22;2892;47.592;7.688;2024-03-08T15:55:16;10.10;99.90
5735;DHT22;2892;47.592;7.688;2024-03-08T15:57:41;10.10;99.90
5735;DHT22;2892;47.592;7.688;2024-03-08T16:00:07;9.90;99.90
5735;DHT22;2892;47.592;7.688;2024-03-08T16:02:33;9.80;99.90
5735;DHT22;2892;47.592;7.688;2024-03-08T16:04:58;9.70;99.90
5735;DHT22;2892;47.592;7.688;2024-03-08T16:07:24;9.70;99.90
5735;DHT22;2892;47.592;7.688;2024-03-08T16:09:49;9.50;99.90
5735;DHT22;2892;47.592;7.688;2024-03-08T16:12:15;9.40;99.90
5735;DHT22;2892;47.592;7.688;2024-03-08T16:14:40;9.20;99.90